OJAIHESH

Guest
Details From OJAI - Queen Alia Intl
To HESH - Sharm El Sheikh Intl
Flight Number -
Tags Generated
Created
Modified
Stats Distance 240 nm / 445 km
Max Altitude 0 ft / 0 m
Waypoints 3
Social Downloads 4
Likes 0
Share VATSIM

Download

Looking for another format? Having issues loading an existing format? Contact us
Advertisement - Login to hide

Notes

Generated

Route

OJAI SHM HESH

ID Type Via Altitude Latitude Longitude Leg Dist Tot Dist Heading (true) Name
O OJAI APT - 0 ft / 0 m 31.71439˚ 35.98059˚ - 0 nm - -
SHM VOR - 0 ft / 0 m 27.99806˚ 34.41333˚ 237 nm 237 nm 200° / 200° SHARM EL SHEIKH VOR-DME
O HESH APT - 0 ft / 0 m 27.96574˚ 34.38598˚ 2 nm 240 nm 217° / 217° -

Altitude Profile

Advertisement - Login to hide

Weather


0- 5 10 15 20 25 30 35+ Temperature / ° C

Clouds and Precipitation
Forecast for 2017-12-16 06:00 UTC. Updated 12 minutes ago

Ground ~20,000 ft ~40,000 ft Winds

OJAI

Details ICAO OJAI (AMM)
Name QUEEN ALIA INTL
Region Jordan and the West Bank
Timezone Asia/Amman (UTC+2.0)
Stats Elevation 2,395 ft / 730 m (AMSL)
Location 31.723310° 35.994046°
Runways 2
Magnetic Variation 4.661° E

METAR

OJAI 160100Z 01004KT 7000 NSC 05/03 Q1023 NOSIG

Decode

TAF

TAF OJAI 152250Z 1600/1706 VRB02KT 5000 BR NSC TEMPO 1600/1608 2000 BR PROB40 1602/1608 0400 FG BECMG 1608/1610 14010KT 5000 HZ FEW035

Decode

Departure Runways

ID Width Length Bearing (true) Bearing (mag) Surface Threshold Offset Overrun Length
08L 200 ft / 61 m 11,948 ft / 3,642 m 80.34° 75.68° Asphalt 0 ft / 0 m 490 ft / 149 m
08R 200 ft / 61 m 11,943 ft / 3,640 m 80.35° 75.69° Concrete 0 ft / 0 m 530 ft / 162 m
26L 200 ft / 61 m 11,943 ft / 3,640 m 260.37° 255.71° Concrete 0 ft / 0 m 500 ft / 152 m
26R 200 ft / 61 m 11,948 ft / 3,642 m 260.36° 255.70° Asphalt 0 ft / 0 m 492 ft / 150 m

HESH

Details ICAO HESH (SSH)
Name SHARM EL SHEIKH INTL
Region Egypt
Timezone Africa/Cairo (UTC+2.0)
Stats Elevation 143 ft / 44 m (AMSL)
Location 27.977318° 34.394945°
Runways 2
Magnetic Variation 4.282° E

METAR

HESH 160100Z 35007KT CAVOK 17/04 Q1020 NOSIG

Decode

TAF

Not found

Destination Runways

ID Width Length Bearing (true) Bearing (mag) Surface Threshold Offset Overrun Length
04L 148 ft / 45 m 10,120 ft / 3,085 m 42.65° 38.37° Asphalt 0 ft / 0 m 200 ft / 61 m
04R 148 ft / 45 m 10,121 ft / 3,085 m 42.65° 38.37° Asphalt 0 ft / 0 m 200 ft / 61 m
22L 148 ft / 45 m 10,121 ft / 3,085 m 222.66° 218.38° Asphalt 0 ft / 0 m 200 ft / 61 m
22R 148 ft / 45 m 10,120 ft / 3,085 m 222.66° 218.38° Asphalt 0 ft / 0 m 200 ft / 61 m

Approach Navaids

Runway Type Ident Frequency Range Bearing (true) Bearing (mag) Slope Elevation
04L Localiser KIL 109.50 MHz 18 nm / 33 km 42.67° 38.39° - 130 ft / 40 m (AMSL)
04L Glidescope KIL 109.50 MHz 10 nm / 19 km 42.65° 38.37° 3.00° 160 ft / 49 m (AMSL)
04L DME KIL 109.50 MHz 18 nm / 33 km - - - 160 ft / 49 m (AMSL)

Popular Alternatives